sensor_id;sensor_type;location;lat;lon;timestamp;pressure;altitude;pressure_sealevel;temperature;humidity
73398;BME280;63606;52.328;20.964;2022-11-15T00:00:53;101270.91;;;5.70;88.73
73398;BME280;63606;52.328;20.964;2022-11-15T00:03:24;101258.66;;;5.76;87.78
73398;BME280;63606;52.328;20.964;2022-11-15T00:05:50;101267.56;;;5.68;88.25
73398;BME280;63606;52.328;20.964;2022-11-15T00:08:15;101260.78;;;5.66;88.23
73398;BME280;63606;52.328;20.964;2022-11-15T00:10:41;101258.03;;;5.59;88.04
73398;BME280;63606;52.328;20.964;2022-11-15T00:13:09;101247.94;;;5.55;88.63
73398;BME280;63606;52.328;20.964;2022-11-15T00:15:36;101251.88;;;5.59;88.21
73398;BME280;63606;52.328;20.964;2022-11-15T00:18:03;101248.22;;;5.60;88.78
73398;BME280;63606;52.328;20.964;2022-11-15T00:20:29;101250.50;;;5.63;88.64
73398;BME280;63606;52.328;20.964;2022-11-15T00:22:55;101244.34;;;5.62;88.93
73398;BME280;63606;52.328;20.964;2022-11-15T00:25:20;101229.78;;;5.65;88.74
73398;BME280;63606;52.328;20.964;2022-11-15T00:27:46;101228.38;;;5.69;88.40
73398;BME280;63606;52.328;20.964;2022-11-15T00:30:12;101218.72;;;5.68;88.18
73398;BME280;63606;52.328;20.964;2022-11-15T00:32:37;101220.31;;;5.62;88.67
73398;BME280;63606;52.328;20.964;2022-11-15T00:35:03;101218.97;;;5.52;89.32
73398;BME280;63606;52.328;20.964;2022-11-15T00:37:29;101215.09;;;5.54;89.28
73398;BME280;63606;52.328;20.964;2022-11-15T00:39:54;101217.75;;;5.54;89.32
73398;BME280;63606;52.328;20.964;2022-11-15T00:42:20;101212.50;;;5.61;89.00
73398;BME280;63606;52.328;20.964;2022-11-15T00:44:45;101210.09;;;5.66;88.93
73398;BME280;63606;52.328;20.964;2022-11-15T00:47:11;101203.94;;;5.65;89.08
73398;BME280;63606;52.328;20.964;2022-11-15T00:49:36;101198.19;;;5.68;88.82
73398;BME280;63606;52.328;20.964;2022-11-15T00:52:02;101194.91;;;5.66;89.46
73398;BME280;63606;52.328;20.964;2022-11-15T00:54:28;101188.75;;;5.66;89.39
73398;BME280;63606;52.328;20.964;2022-11-15T00:56:53;101190.38;;;5.67;89.55
73398;BME280;63606;52.328;20.964;2022-11-15T00:59:19;101184.69;;;5.70;89.20
73398;BME280;63606;52.328;20.964;2022-11-15T01:01:44;101179.78;;;5.73;89.21
73398;BME280;63606;52.328;20.964;2022-11-15T01:04:10;101175.41;;;5.66;89.44
73398;BME280;63606;52.328;20.964;2022-11-15T01:06:36;101167.78;;;5.63;89.51
73398;BME280;63606;52.328;20.964;2022-11-15T01:09:01;101168.41;;;5.65;89.94
73398;BME280;63606;52.328;20.964;2022-11-15T01:11:27;101164.34;;;5.69;89.08
73398;BME280;63606;52.328;20.964;2022-11-15T01:13:52;101164.34;;;5.69;89.51
73398;BME280;63606;52.328;20.964;2022-11-15T01:16:18;101161.66;;;5.69;88.84
73398;BME280;63606;52.328;20.964;2022-11-15T01:18:45;101155.69;;;5.67;89.80
73398;BME280;63606;52.328;20.964;2022-11-15T01:21:14;101160.72;;;5.55;89.65
73398;BME280;63606;52.328;20.964;2022-11-15T01:23:40;101151.31;;;5.59;90.24
73398;BME280;63606;52.328;20.964;2022-11-15T01:26:09;101141.03;;;5.56;89.56
73398;BME280;63606;52.328;20.964;2022-11-15T01:28:36;101128.25;;;5.52;90.69
73398;BME280;63606;52.328;20.964;2022-11-15T01:31:05;101131.94;;;5.51;90.35
73398;BME280;63606;52.328;20.964;2022-11-15T01:33:34;101133.22;;;5.55;90.90
73398;BME280;63606;52.328;20.964;2022-11-15T01:36:04;101143.06;;;5.54;90.58
73398;BME280;63606;52.328;20.964;2022-11-15T01:38:30;101132.81;;;5.58;90.51
73398;BME280;63606;52.328;20.964;2022-11-15T01:40:55;101138.16;;;5.58;90.27
73398;BME280;63606;52.328;20.964;2022-11-15T01:43:28;101141.09;;;5.63;90.69
73398;BME280;63606;52.328;20.964;2022-11-15T01:46:33;101121.63;;;5.69;90.46
73398;BME280;63606;52.328;20.964;2022-11-15T01:49:03;101121.84;;;5.67;90.44
73398;BME280;63606;52.328;20.964;2022-11-15T01:51:32;101117.97;;;5.70;90.20
73398;BME280;63606;52.328;20.964;2022-11-15T01:54:05;101118.63;;;5.72;89.97
73398;BME280;63606;52.328;20.964;2022-11-15T01:56:37;101119.63;;;5.71;90.05
73398;BME280;63606;52.328;20.964;2022-11-15T01:59:06;101115.56;;;5.75;89.66
73398;BME280;63606;52.328;20.964;2022-11-15T02:01:33;101101.81;;;5.78;90.33
73398;BME280;63606;52.328;20.964;2022-11-15T02:04:02;101103.09;;;5.82;89.88
73398;BME280;63606;52.328;20.964;2022-11-15T02:06:30;101097.75;;;5.82;89.38
73398;BME280;63606;52.328;20.964;2022-11-15T02:08:56;101107.16;;;5.78;89.32
73398;BME280;63606;52.328;20.964;2022-11-15T02:11:22;101093.25;;;5.83;90.03
73398;BME280;63606;52.328;20.964;2022-11-15T02:13:48;101101.47;;;5.81;89.79
73398;BME280;63606;52.328;20.964;2022-11-15T02:16:46;101091.34;;;5.77;89.62
73398;BME280;63606;52.328;20.964;2022-11-15T02:19:26;101088.63;;;5.70;89.70
73398;BME280;63606;52.328;20.964;2022-11-15T02:22:14;101094.72;;;5.64;89.92
73398;BME280;63606;52.328;20.964;2022-11-15T02:27:25;101083.22;;;5.63;90.27
73398;BME280;63606;52.328;20.964;2022-11-15T02:36:00;101072.63;;;5.70;90.18
73398;BME280;63606;52.328;20.964;2022-11-15T02:38:33;101079.34;;;5.66;90.68
73398;BME280;63606;52.328;20.964;2022-11-15T02:41:07;101077.69;;;5.65;90.31
73398;BME280;63606;52.328;20.964;2022-11-15T02:43:40;101070.09;;;5.62;90.78
73398;BME280;63606;52.328;20.964;2022-11-15T02:49:11;101061.88;;;5.63;90.52
73398;BME280;63606;52.328;20.964;2022-11-15T02:51:37;101061.19;;;5.55;90.52
73398;BME280;63606;52.328;20.964;2022-11-15T02:54:03;101054.59;;;5.51;91.21
73398;BME280;63606;52.328;20.964;2022-11-15T02:56:28;101053.75;;;5.50;90.59
73398;BME280;63606;52.328;20.964;2022-11-15T03:01:57;101048.78;;;5.47;91.09
73398;BME280;63606;52.328;20.964;2022-11-15T03:04:56;101044.91;;;5.50;90.89
73398;BME280;63606;52.328;20.964;2022-11-15T03:10:10;101039.97;;;5.46;91.37
73398;BME280;63606;52.328;20.964;2022-11-15T03:13:19;101042.81;;;5.45;91.11
73398;BME280;63606;52.328;20.964;2022-11-15T03:15:57;101035.41;;;5.40;91.90
73398;BME280;63606;52.328;20.964;2022-11-15T03:18:32;101031.72;;;5.41;91.53
73398;BME280;63606;52.328;20.964;2022-11-15T03:21:02;101037.88;;;5.42;91.59
73398;BME280;63606;52.328;20.964;2022-11-15T03:23:30;101024.97;;;5.45;91.51
73398;BME280;63606;52.328;20.964;2022-11-15T03:25:58;101020.47;;;5.46;90.92
73398;BME280;63606;52.328;20.964;2022-11-15T03:29:04;101017.88;;;5.53;91.02
73398;BME280;63606;52.328;20.964;2022-11-15T03:31:35;101001.88;;;5.53;91.84
73398;BME280;63606;52.328;20.964;2022-11-15T03:34:34;101004.53;;;5.53;91.88
73398;BME280;63606;52.328;20.964;2022-11-15T03:37:01;101002.88;;;5.52;91.42
73398;BME280;63606;52.328;20.964;2022-11-15T03:39:27;101003.25;;;5.49;91.58
73398;BME280;63606;52.328;20.964;2022-11-15T03:45:02;100995.91;;;5.51;90.77
73398;BME280;63606;52.328;20.964;2022-11-15T03:47:35;100985.88;;;5.53;91.50
73398;BME280;63606;52.328;20.964;2022-11-15T03:50:11;100995.72;;;5.52;91.26
73398;BME280;63606;52.328;20.964;2022-11-15T03:52:39;100983.19;;;5.53;90.77
73398;BME280;63606;52.328;20.964;2022-11-15T03:55:09;100979.69;;;5.52;90.91
73398;BME280;63606;52.328;20.964;2022-11-15T03:57:36;100975.41;;;5.58;90.91
73398;BME280;63606;52.328;20.964;2022-11-15T04:00:03;100971.72;;;5.59;90.80
73398;BME280;63606;52.328;20.964;2022-11-15T04:02:29;100982.03;;;5.62;90.45
73398;BME280;63606;52.328;20.964;2022-11-15T04:04:54;100972.38;;;5.61;90.56
73398;BME280;63606;52.328;20.964;2022-11-15T04:07:20;100983.00;;;5.54;91.06
73398;BME280;63606;52.328;20.964;2022-11-15T04:09:45;100974.78;;;5.56;90.86
73398;BME280;63606;52.328;20.964;2022-11-15T04:12:36;100974.41;;;5.59;91.20
73398;BME280;63606;52.328;20.964;2022-11-15T04:15:13;100971.56;;;5.60;90.40
73398;BME280;63606;52.328;20.964;2022-11-15T04:17:50;100967.81;;;5.55;91.31
73398;BME280;63606;52.328;20.964;2022-11-15T04:20:20;100968.44;;;5.57;91.20
73398;BME280;63606;52.328;20.964;2022-11-15T04:23:08;100962.81;;;5.45;91.14
73398;BME280;63606;52.328;20.964;2022-11-15T04:25:55;100960.75;;;5.40;91.20
73398;BME280;63606;52.328;20.964;2022-11-15T04:28:21;100956.22;;;5.41;91.36
73398;BME280;63606;52.328;20.964;2022-11-15T04:30:47;100952.16;;;5.45;91.07
73398;BME280;63606;52.328;20.964;2022-11-15T04:33:12;100952.56;;;5.49;91.58
73398;BME280;63606;52.328;20.964;2022-11-15T04:35:38;100952.56;;;5.49;91.61
73398;BME280;63606;52.328;20.964;2022-11-15T04:38:05;100958.94;;;5.47;92.12
73398;BME280;63606;52.328;20.964;2022-11-15T04:40:31;100955.63;;;5.45;92.06
73398;BME280;63606;52.328;20.964;2022-11-15T04:42:57;100954.75;;;5.38;92.17
73398;BME280;63606;52.328;20.964;2022-11-15T04:45:23;100949.41;;;5.38;91.80
73398;BME280;63606;52.328;20.964;2022-11-15T04:47:49;100951.06;;;5.39;92.71
73398;BME280;63606;52.328;20.964;2022-11-15T04:50:15;100947.63;;;5.45;91.48
73398;BME280;63606;52.328;20.964;2022-11-15T04:52:51;100946.88;;;5.52;92.14
73398;BME280;63606;52.328;20.964;2022-11-15T04:55:17;100948.50;;;5.53;91.64
73398;BME280;63606;52.328;20.964;2022-11-15T04:57:42;100951.81;;;5.55;91.17
73398;BME280;63606;52.328;20.964;2022-11-15T05:00:11;100950.56;;;5.51;92.23
73398;BME280;63606;52.328;20.964;2022-11-15T05:02:37;100941.97;;;5.55;91.62
73398;BME280;63606;52.328;20.964;2022-11-15T05:05:21;100947.72;;;5.59;91.53
73398;BME280;63606;52.328;20.964;2022-11-15T05:07:46;100935.81;;;5.55;90.98
73398;BME280;63606;52.328;20.964;2022-11-15T05:10:12;100930.88;;;5.52;91.73
73398;BME280;63606;52.328;20.964;2022-11-15T05:12:38;100926.28;;;5.45;91.71
73398;BME280;63606;52.328;20.964;2022-11-15T05:15:03;100931.22;;;5.49;91.52
73398;BME280;63606;52.328;20.964;2022-11-15T05:17:29;100927.53;;;5.50;92.06
73398;BME280;63606;52.328;20.964;2022-11-15T05:19:55;100933.66;;;5.43;91.97
73398;BME280;63606;52.328;20.964;2022-11-15T05:22:20;100926.28;;;5.45;92.46
73398;BME280;63606;52.328;20.964;2022-11-15T05:24:46;100925.06;;;5.48;91.49
73398;BME280;63606;52.328;20.964;2022-11-15T05:27:11;100934.44;;;5.37;91.83
73398;BME280;63606;52.328;20.964;2022-11-15T05:29:37;100927.31;;;5.44;92.24
73398;BME280;63606;52.328;20.964;2022-11-15T05:32:05;100928.13;;;5.45;92.25
73398;BME280;63606;52.328;20.964;2022-11-15T05:34:31;100920.13;;;5.45;91.84
73398;BME280;63606;52.328;20.964;2022-11-15T05:36:57;100928.75;;;5.47;91.80
73398;BME280;63606;52.328;20.964;2022-11-15T05:39:23;100924.25;;;5.47;92.29
73398;BME280;63606;52.328;20.964;2022-11-15T05:41:55;100920.56;;;5.49;92.07
73398;BME280;63606;52.328;20.964;2022-11-15T05:44:24;100921.38;;;5.49;92.16
73398;BME280;63606;52.328;20.964;2022-11-15T05:46:53;100923.81;;;5.44;91.44
73398;BME280;63606;52.328;20.964;2022-11-15T05:49:23;100922.59;;;5.46;92.20
73398;BME280;63606;52.328;20.964;2022-11-15T05:51:51;100921.78;;;5.46;91.42
73398;BME280;63606;52.328;20.964;2022-11-15T05:54:17;100913.59;;;5.47;91.59
73398;BME280;63606;52.328;20.964;2022-11-15T05:56:45;100910.91;;;5.47;91.57
73398;BME280;63606;52.328;20.964;2022-11-15T05:59:11;100913.22;;;5.51;91.60
73398;BME280;63606;52.328;20.964;2022-11-15T06:01:37;100906.19;;;5.50;91.47
73398;BME280;63606;52.328;20.964;2022-11-15T06:04:03;100910.91;;;5.47;90.84
73398;BME280;63606;52.328;20.964;2022-11-15T06:06:29;100910.28;;;5.45;91.69
73398;BME280;63606;52.328;20.964;2022-11-15T06:08:54;100914.75;;;5.38;91.89
73398;BME280;63606;52.328;20.964;2022-11-15T06:11:20;100911.88;;;5.40;91.18
73398;BME280;63606;52.328;20.964;2022-11-15T06:13:46;100915.00;;;5.43;92.09
73398;BME280;63606;52.328;20.964;2022-11-15T06:16:11;100920.97;;;5.45;91.32
73398;BME280;63606;52.328;20.964;2022-11-15T06:18:37;100924.25;;;5.47;91.67
73398;BME280;63606;52.328;20.964;2022-11-15T06:21:03;100921.69;;;5.33;91.95
73398;BME280;63606;52.328;20.964;2022-11-15T06:23:32;100928.47;;;5.35;91.85
73398;BME280;63606;52.328;20.964;2022-11-15T06:25:58;100929.72;;;5.39;91.66
73398;BME280;63606;52.328;20.964;2022-11-15T06:28:24;100925.81;;;5.35;91.93
73398;BME280;63606;52.328;20.964;2022-11-15T06:30:53;100914.75;;;5.38;92.19
73398;BME280;63606;52.328;20.964;2022-11-15T06:33:18;100916.03;;;5.42;91.86
73398;BME280;63606;52.328;20.964;2022-11-15T06:35:44;100918.06;;;5.40;91.59
73398;BME280;63606;52.328;20.964;2022-11-15T06:38:10;100920.06;;;5.38;91.72
73398;BME280;63606;52.328;20.964;2022-11-15T06:40:37;100924.22;;;5.41;91.17
73398;BME280;63606;52.328;20.964;2022-11-15T06:43:04;100922.19;;;5.43;90.73
73398;BME280;63606;52.328;20.964;2022-11-15T06:45:30;100930.19;;;5.43;91.08
73398;BME280;63606;52.328;20.964;2022-11-15T06:47:57;100934.44;;;5.37;91.48
73398;BME280;63606;52.328;20.964;2022-11-15T06:50:23;100934.44;;;5.37;91.35
73398;BME280;63606;52.328;20.964;2022-11-15T06:52:48;100938.38;;;5.41;90.94
73398;BME280;63606;52.328;20.964;2022-11-15T06:55:14;100942.63;;;5.36;90.69
73398;BME280;63606;52.328;20.964;2022-11-15T06:57:48;100934.44;;;5.37;91.58
73398;BME280;63606;52.328;20.964;2022-11-15T07:00:14;100931.56;;;5.39;90.59
73398;BME280;63606;52.328;20.964;2022-11-15T07:02:40;100939.41;;;5.40;91.37
73398;BME280;63606;52.328;20.964;2022-11-15T07:05:05;100940.03;;;5.42;90.98
73398;BME280;63606;52.328;20.964;2022-11-15T07:07:31;100942.22;;;5.39;90.99
73398;BME280;63606;52.328;20.964;2022-11-15T07:09:57;100941.69;;;5.43;90.96
73398;BME280;63606;52.328;20.964;2022-11-15T07:12:22;100937.09;;;5.37;90.91
73398;BME280;63606;52.328;20.964;2022-11-15T07:14:48;100942.81;;;5.34;90.92
73398;BME280;63606;52.328;20.964;2022-11-15T07:17:13;100944.28;;;5.37;91.83
73398;BME280;63606;52.328;20.964;2022-11-15T07:19:39;100941.22;;;5.40;92.41
73398;BME280;63606;52.328;20.964;2022-11-15T07:22:04;100939.19;;;5.42;91.70
73398;BME280;63606;52.328;20.964;2022-11-15T07:24:30;100940.66;;;5.44;91.43
73398;BME280;63606;52.328;20.964;2022-11-15T07:26:55;100936.97;;;5.45;91.14
73398;BME280;63606;52.328;20.964;2022-11-15T07:29:21;100932.25;;;5.47;91.11
73398;BME280;63606;52.328;20.964;2022-11-15T07:31:46;100934.09;;;5.47;90.75
73398;BME280;63606;52.328;20.964;2022-11-15T07:34:12;100935.53;;;5.50;90.28
73398;BME280;63606;52.328;20.964;2022-11-15T07:36:37;100931.91;;;5.29;91.21
73398;BME280;63606;52.328;20.964;2022-11-15T07:39:03;100923.28;;;5.27;91.58
73398;BME280;63606;52.328;20.964;2022-11-15T07:41:28;100923.72;;;5.31;91.01
73398;BME280;63606;52.328;20.964;2022-11-15T07:43:54;100924.06;;;5.21;90.90
73398;BME280;63606;52.328;20.964;2022-11-15T07:46:20;100923.59;;;5.17;90.40
73398;BME280;63606;52.328;20.964;2022-11-15T07:48:46;100926.91;;;5.20;90.82
73398;BME280;63606;52.328;20.964;2022-11-15T07:51:15;100910.53;;;5.23;90.77
73398;BME280;63606;52.328;20.964;2022-11-15T07:53:42;100926.06;;;5.19;91.13
73398;BME280;63606;52.328;20.964;2022-11-15T07:56:08;100926.72;;;5.21;90.17
73398;BME280;63606;52.328;20.964;2022-11-15T07:58:34;100916.44;;;5.18;90.67
73398;BME280;63606;52.328;20.964;2022-11-15T08:01:08;100912.13;;;5.17;90.54
73398;BME280;63606;52.328;20.964;2022-11-15T08:03:34;100904.13;;;5.17;91.18
73398;BME280;63606;52.328;20.964;2022-11-15T08:06:00;100901.50;;;5.24;90.28
73398;BME280;63606;52.328;20.964;2022-11-15T08:08:26;100894.97;;;5.26;90.38
73398;BME280;63606;52.328;20.964;2022-11-15T08:10:52;100906.50;;;5.33;89.61
73398;BME280;63606;52.328;20.964;2022-11-15T08:13:17;100903.44;;;5.36;89.50
73398;BME280;63606;52.328;20.964;2022-11-15T08:15:43;100901.19;;;5.33;90.34
73398;BME280;63606;52.328;20.964;2022-11-15T08:18:12;100894.97;;;5.26;90.57
73398;BME280;63606;52.328;20.964;2022-11-15T08:20:38;100889.50;;;5.34;90.23
73398;BME280;63606;52.328;20.964;2022-11-15T08:23:04;100882.38;;;5.41;89.84
73398;BME280;63606;52.328;20.964;2022-11-15T08:25:32;100879.31;;;5.44;89.04
73398;BME280;63606;52.328;20.964;2022-11-15T08:28:00;100881.16;;;5.44;89.26
73398;BME280;63606;52.328;20.964;2022-11-15T08:30:27;100887.25;;;5.38;89.25
73398;BME280;63606;52.328;20.964;2022-11-15T08:32:53;100882.88;;;5.30;90.27
73398;BME280;63606;52.328;20.964;2022-11-15T08:35:20;100880.63;;;5.27;89.86
73398;BME280;63606;52.328;20.964;2022-11-15T08:37:46;100883.53;;;5.32;89.72
73398;BME280;63606;52.328;20.964;2022-11-15T08:40:12;100878.19;;;5.32;89.88
73398;BME280;63606;52.328;20.964;2022-11-15T08:42:39;100874.88;;;5.30;89.67
73398;BME280;63606;52.328;20.964;2022-11-15T08:45:06;100873.69;;;5.33;90.08
73398;BME280;63606;52.328;20.964;2022-11-15T08:47:32;100877.81;;;5.35;89.82
73398;BME280;63606;52.328;20.964;2022-11-15T08:49:58;100884.38;;;5.39;90.08
73398;BME280;63606;52.328;20.964;2022-11-15T08:52:24;100879.06;;;5.39;90.56
73398;BME280;63606;52.328;20.964;2022-11-15T08:54:49;100878.69;;;5.42;89.86
73398;BME280;63606;52.328;20.964;2022-11-15T08:57:15;100884.50;;;5.53;89.27
73398;BME280;63606;52.328;20.964;2022-11-15T08:59:40;100872.56;;;5.49;89.39
73398;BME280;63606;52.328;20.964;2022-11-15T09:02:06;100870.75;;;5.56;89.07
73398;BME280;63606;52.328;20.964;2022-11-15T09:04:32;100866.03;;;5.58;88.64
73398;BME280;63606;52.328;20.964;2022-11-15T09:06:57;100867.53;;;5.60;88.70
73398;BME280;63606;52.328;20.964;2022-11-15T09:09:23;100865.41;;;5.56;88.76
73398;BME280;63606;52.328;20.964;2022-11-15T09:11:48;100857.84;;;5.59;88.50
73398;BME280;63606;52.328;20.964;2022-11-15T09:14:15;100864.66;;;5.62;88.48
73398;BME280;63606;52.328;20.964;2022-11-15T09:16:41;100855.00;;;5.61;88.95
73398;BME280;63606;52.328;20.964;2022-11-15T09:19:07;100852.75;;;5.64;88.43
73398;BME280;63606;52.328;20.964;2022-11-15T09:21:32;100845.97;;;5.62;88.95
73398;BME280;63606;52.328;20.964;2022-11-15T09:23:58;100835.47;;;5.54;89.28
73398;BME280;63606;52.328;20.964;2022-11-15T09:26:24;100838.13;;;5.54;89.29
73398;BME280;63606;52.328;20.964;2022-11-15T09:28:49;100836.47;;;5.53;89.33
73398;BME280;63606;52.328;20.964;2022-11-15T09:31:15;100833.81;;;5.59;88.83
73398;BME280;63606;52.328;20.964;2022-11-15T09:33:43;100845.34;;;5.60;89.59
73398;BME280;63606;52.328;20.964;2022-11-15T09:36:09;100835.31;;;5.62;89.56
73398;BME280;63606;52.328;20.964;2022-11-15T09:38:35;100829.16;;;5.68;88.83
73398;BME280;63606;52.328;20.964;2022-11-15T09:43:39;100829.81;;;5.70;89.22
73398;BME280;63606;52.328;20.964;2022-11-15T09:46:18;100826.50;;;5.68;88.90
73398;BME280;63606;52.328;20.964;2022-11-15T09:49:00;100825.28;;;5.70;89.05
73398;BME280;63606;52.328;20.964;2022-11-15T09:51:38;100825.50;;;5.75;88.80
73398;BME280;63606;52.328;20.964;2022-11-15T09:54:39;100819.75;;;5.79;87.90
73398;BME280;63606;52.328;20.964;2022-11-15T09:57:14;100817.94;;;5.79;88.63
73398;BME280;63606;52.328;20.964;2022-11-15T10:05:40;100805.19;;;5.74;89.21
73398;BME280;63606;52.328;20.964;2022-11-15T10:08:30;100804.19;;;5.82;89.15
73398;BME280;63606;52.328;20.964;2022-11-15T10:11:03;100803.78;;;5.85;89.50
73398;BME280;63606;52.328;20.964;2022-11-15T10:13:32;100800.72;;;5.88;88.20
73398;BME280;63606;52.328;20.964;2022-11-15T10:16:33;100794.38;;;5.89;87.58
73398;BME280;63606;52.328;20.964;2022-11-15T10:24:12;100790.25;;;5.87;88.75
73398;BME280;63606;52.328;20.964;2022-11-15T10:26:38;100793.13;;;5.85;89.27
73398;BME280;63606;52.328;20.964;2022-11-15T10:29:04;100792.69;;;5.88;89.53
73398;BME280;63606;52.328;20.964;2022-11-15T10:31:30;100798.03;;;5.88;89.95
73398;BME280;63606;52.328;20.964;2022-11-15T10:36:37;100788.25;;;5.95;88.85
73398;BME280;63606;52.328;20.964;2022-11-15T10:39:03;100787.38;;;5.82;89.31
73398;BME280;63606;52.328;20.964;2022-11-15T10:41:29;100777.16;;;5.92;89.54
73398;BME280;63606;52.328;20.964;2022-11-15T10:46:47;100776.59;;;6.10;88.92
73398;BME280;63606;52.328;20.964;2022-11-15T10:49:20;100779.47;;;6.15;88.35
73398;BME280;63606;52.328;20.964;2022-11-15T10:51:55;100775.97;;;6.14;88.62
73398;BME280;63606;52.328;20.964;2022-11-15T10:57:04;100768.41;;;6.18;87.81
73398;BME280;63606;52.328;20.964;2022-11-15T10:59:33;100774.38;;;6.20;88.33
73398;BME280;63606;52.328;20.964;2022-11-15T11:02:00;100766.16;;;6.21;87.38
73398;BME280;63606;52.328;20.964;2022-11-15T11:04:26;100768.41;;;6.18;88.11
73398;BME280;63606;52.328;20.964;2022-11-15T11:06:58;100761.63;;;6.22;88.06
73398;BME280;63606;52.328;20.964;2022-11-15T11:09:35;100766.16;;;6.28;88.55
73398;BME280;63606;52.328;20.964;2022-11-15T11:12:04;100758.53;;;6.25;88.69
73398;BME280;63606;52.328;20.964;2022-11-15T11:14:32;100766.34;;;6.20;89.02
73398;BME280;63606;52.328;20.964;2022-11-15T11:19:52;100764.06;;;6.17;88.98
73398;BME280;63606;52.328;20.964;2022-11-15T11:27:43;100751.38;;;6.32;88.17
73398;BME280;63606;52.328;20.964;2022-11-15T11:30:17;100748.09;;;6.30;88.35
73398;BME280;63606;52.328;20.964;2022-11-15T11:32:59;100739.88;;;6.31;88.18
73398;BME280;63606;52.328;20.964;2022-11-15T11:46:02;100725.91;;;6.43;87.71
73398;BME280;63606;52.328;20.964;2022-11-15T11:48:40;100721.59;;;6.42;87.32
73398;BME280;63606;52.328;20.964;2022-11-15T11:53:54;100719.72;;;6.42;88.07
73398;BME280;63606;52.328;20.964;2022-11-15T11:56:27;100715.41;;;6.35;88.28
73398;BME280;63606;52.328;20.964;2022-11-15T11:59:00;100720.34;;;6.38;88.54
73398;BME280;63606;52.328;20.964;2022-11-15T12:01:35;100712.34;;;6.38;87.58
73398;BME280;63606;52.328;20.964;2022-11-15T12:04:24;100712.94;;;6.33;88.40
73398;BME280;63606;52.328;20.964;2022-11-15T12:09:35;100699.59;;;6.33;87.97
73398;BME280;63606;52.328;20.964;2022-11-15T12:12:25;100693.44;;;6.39;88.47
73398;BME280;63606;52.328;20.964;2022-11-15T12:15:21;100692.41;;;6.40;88.30
73398;BME280;63606;52.328;20.964;2022-11-15T12:17:48;100695.06;;;6.34;89.46
73398;BME280;63606;52.328;20.964;2022-11-15T12:20:22;100691.16;;;6.36;88.17
73398;BME280;63606;52.328;20.964;2022-11-15T12:22:59;100694.25;;;6.40;87.69
73398;BME280;63606;52.328;20.964;2022-11-15T12:28:50;100674.09;;;6.44;88.07
73398;BME280;63606;52.328;20.964;2022-11-15T12:31:26;100676.56;;;6.45;87.91
73398;BME280;63606;52.328;20.964;2022-11-15T12:33:57;100672.69;;;6.41;88.38
73398;BME280;63606;52.328;20.964;2022-11-15T12:39:03;100669.78;;;6.36;88.46
73398;BME280;63606;52.328;20.964;2022-11-15T12:41:31;100667.97;;;6.30;89.11
73398;BME280;63606;52.328;20.964;2022-11-15T12:43:58;100674.94;;;6.31;89.27
73398;BME280;63606;52.328;20.964;2022-11-15T13:02:39;100663.00;;;6.27;88.94
73398;BME280;63606;52.328;20.964;2022-11-15T13:17:47;100660.94;;;6.36;88.56
73398;BME280;63606;52.328;20.964;2022-11-15T13:27:49;100650.28;;;6.42;88.76
73398;BME280;63606;52.328;20.964;2022-11-15T13:30:27;100642.66;;;6.46;88.54
73398;BME280;63606;52.328;20.964;2022-11-15T13:32:54;100639.59;;;6.42;88.12
73398;BME280;63606;52.328;20.964;2022-11-15T13:35:22;100641.44;;;6.42;87.95
73398;BME280;63606;52.328;20.964;2022-11-15T13:37:49;100628.28;;;6.34;89.07
73398;BME280;63606;52.328;20.964;2022-11-15T13:40:26;100637.13;;;6.34;89.26
73398;BME280;63606;52.328;20.964;2022-11-15T13:42:53;100624.81;;;6.40;88.78
73398;BME280;63606;52.328;20.964;2022-11-15T13:45:19;100637.53;;;6.24;89.08
73398;BME280;63606;52.328;20.964;2022-11-15T13:47:51;100639.19;;;6.32;88.60
73398;BME280;63606;52.328;20.964;2022-11-15T13:50:16;100629.31;;;6.26;89.04
73398;BME280;63606;52.328;20.964;2022-11-15T13:52:44;100635.91;;;6.23;89.68
73398;BME280;63606;52.328;20.964;2022-11-15T13:55:22;100637.16;;;6.21;89.47
73398;BME280;63606;52.328;20.964;2022-11-15T13:57:52;100631.41;;;6.11;89.79
73398;BME280;63606;52.328;20.964;2022-11-15T14:08:29;100621.94;;;6.28;88.61
73398;BME280;63606;52.328;20.964;2022-11-15T14:13:39;100621.53;;;6.31;88.77
73398;BME280;63606;52.328;20.964;2022-11-15T14:16:21;100617.00;;;6.25;89.43
73398;BME280;63606;52.328;20.964;2022-11-15T14:18:51;100624.19;;;6.24;89.03
73398;BME280;63606;52.328;20.964;2022-11-15T14:21:18;100618.66;;;6.19;88.97
73398;BME280;63606;52.328;20.964;2022-11-15T14:23:44;100612.50;;;6.19;89.04
73398;BME280;63606;52.328;20.964;2022-11-15T14:26:30;100609.19;;;6.17;89.19
73398;BME280;63606;52.328;20.964;2022-11-15T14:28:56;100607.97;;;6.13;89.05
73398;BME280;63606;52.328;20.964;2022-11-15T14:31:22;100616.00;;;6.13;89.12
73398;BME280;63606;52.328;20.964;2022-11-15T14:33:47;100613.31;;;6.13;88.83
73398;BME280;63606;52.328;20.964;2022-11-15T14:36:19;100612.91;;;6.02;89.53
73398;BME280;63606;52.328;20.964;2022-11-15T14:38:45;100614.56;;;6.03;89.96
73398;BME280;63606;52.328;20.964;2022-11-15T14:41:21;100611.88;;;6.03;89.78
73398;BME280;63606;52.328;20.964;2022-11-15T14:43:47;100609.00;;;6.05;89.81
73398;BME280;63606;52.328;20.964;2022-11-15T14:46:13;100613.09;;;6.08;89.49
73398;BME280;63606;52.328;20.964;2022-11-15T14:48:38;100611.47;;;6.07;89.07
73398;BME280;63606;52.328;20.964;2022-11-15T14:51:11;100609.00;;;6.12;89.12
73398;BME280;63606;52.328;20.964;2022-11-15T14:53:37;100603.06;;;6.10;89.26
73398;BME280;63606;52.328;20.964;2022-11-15T14:56:02;100606.34;;;6.12;89.24
73398;BME280;63606;52.328;20.964;2022-11-15T14:58:28;100605.53;;;6.11;88.90
73398;BME280;63606;52.328;20.964;2022-11-15T15:00:53;100608.41;;;6.10;89.13